地図

経路データ

SID SEASON NUMBER BASIN SUBBASIN NAME ISO_TIME NATURE LAT LON WMO_WIND WMO_PRES WMO_AGENCY TRACK_TYPE DIST2LAND LANDFALL IFLAG USA_AGENCY USA_ATCF_ID USA_LAT USA_LON USA_RECORD USA_STATUS USA_WIND USA_PRES USA_SSHS USA_R34_NE USA_R34_SE USA_R34_SW USA_R34_NW USA_R50_NE USA_R50_SE USA_R50_SW USA_R50_NW USA_R64_NE USA_R64_SE USA_R64_SW USA_R64_NW USA_POCI USA_ROCI USA_RMW USA_EYE TOKYO_LAT TOKYO_LON TOKYO_GRADE TOKYO_WIND TOKYO_PRES TOKYO_R50_DIR TOKYO_R50_LONG TOKYO_R50_SHORT TOKYO_R30_DIR TOKYO_R30_LONG TOKYO_R30_SHORT TOKYO_LAND CMA_LAT CMA_LON CMA_CAT CMA_WIND CMA_PRES HKO_LAT HKO_LON HKO_CAT HKO_WIND HKO_PRES NEWDELHI_LAT NEWDELHI_LON NEWDELHI_GRADE NEWDELHI_WIND NEWDELHI_PRES NEWDELHI_CI NEWDELHI_DP NEWDELHI_POCI REUNION_LAT REUNION_LON REUNION_TYPE REUNION_WIND REUNION_PRES REUNION_TNUM REUNION_CI REUNION_RMW REUNION_R34_NE REUNION_R34_SE REUNION_R34_SW REUNION_R34_NW REUNION_R50_NE REUNION_R50_SE REUNION_R50_SW REUNION_R50_NW REUNION_R64_NE REUNION_R64_SE REUNION_R64_SW REUNION_R64_NW BOM_LAT BOM_LON BOM_TYPE BOM_WIND BOM_PRES BOM_TNUM BOM_CI BOM_RMW BOM_R34_NE BOM_R34_SE BOM_R34_SW BOM_R34_NW BOM_R50_NE BOM_R50_SE BOM_R50_SW BOM_R50_NW BOM_R64_NE BOM_R64_SE BOM_R64_SW BOM_R64_NW BOM_ROCI BOM_POCI BOM_EYE BOM_POS_METHOD BOM_PRES_METHOD NADI_LAT NADI_LON NADI_CAT NADI_WIND NADI_PRES WELLINGTON_LAT WELLINGTON_LON WELLINGTON_WIND WELLINGTON_PRES DS824_LAT DS824_LON DS824_STAGE DS824_WIND DS824_PRES TD9636_LAT TD9636_LON TD9636_STAGE TD9636_WIND TD9636_PRES TD9635_LAT TD9635_LON TD9635_WIND TD9635_PRES TD9635_ROCI NEUMANN_LAT NEUMANN_LON NEUMANN_CLASS NEUMANN_WIND NEUMANN_PRES MLC_LAT MLC_LON MLC_CLASS MLC_WIND MLC_PRES USA_GUST BOM_GUST BOM_GUST_PER REUNION_GUST REUNION_GUST_PER USA_SEAHGT USA_SEARAD_NE USA_SEARAD_SE USA_SEARAD_SW USA_SEARAD_NW STORM_SPEED STORM_DIR
2021276N07131 2021 89 WP MM LIONROCK 2021-10-02 18:00:00 NR 6.90000 130.800 main 466 409 O_____________ jtwc_wp WP222021 6.90000 130.800 DB 20 1005 -3 1011 100 60 12 292
2021276N07131 2021 89 WP MM LIONROCK 2021-10-02 21:00:00 NR 7.11742 130.252 main 409 331 P_____________ WP222021 7.11742 130.252 DB 20 1005 -3 1008 112 60 13 293
2021276N07131 2021 89 WP MM LIONROCK 2021-10-03 00:00:00 NR 7.40000 129.600 main 331 242 O_____________ jtwc_wp WP222021 7.40000 129.600 DB 20 1005 -3 1006 125 60 16 295
2021276N07131 2021 89 WP MM LIONROCK 2021-10-03 03:00:00 NR 7.78526 128.805 main 242 174 P_____________ WP222021 7.78526 128.805 DB 20 1005 -3 1006 132 60 17 298
2021276N07131 2021 89 WP MM LIONROCK 2021-10-03 06:00:00 NR 8.20000 128.100 main 174 155 O_____________ jtwc_wp WP222021 8.20000 128.100 DB 20 1005 -3 1007 140 60 13 307
2021276N07131 2021 89 WP MM LIONROCK 2021-10-03 09:00:00 NR 8.56460 127.777 main 157 132 P_____________ WP222021 8.56460 127.777 DB 20 1005 -3 1007 170 60 9 320
2021276N07131 2021 89 WP MM LIONROCK 2021-10-03 12:00:00 NR 8.90000 127.500 main 132 87 O_____________ jtwc_wp WP222021 8.90000 127.500 DB 20 1005 -3 1008 200 60 10 309
2021276N07131 2021 89 WP MM LIONROCK 2021-10-03 15:00:00 NR 9.21504 126.952 main 87 31 P_____________ WP222021 9.21504 126.952 DB 20 1005 -3 1008 200 60 13 297
2021276N07131 2021 89 WP MM LIONROCK 2021-10-03 18:00:00 NR 9.50000 126.300 main 32 15 O_____________ jtwc_wp WP222021 9.50000 126.300 DB 20 1006 -3 1008 200 60 13 296
2021276N07131 2021 89 WP MM LIONROCK 2021-10-03 21:00:00 NR 9.80930 125.740 main 15 10 P_____________ WP222021 9.80930 125.740 DB 17 1008 -3 1009 200 60 14 291
2021276N07131 2021 89 WP MM LIONROCK 2021-10-04 00:00:00 NR 10.0000 125.000 main 0 0 O_____________ jtwc_wp WP222021 10.0000 125.000 DB 15 1010 -3 1010 200 60 19 274
2021276N07131 2021 89 WP MM LIONROCK 2021-10-04 03:00:00 NR 9.93862 123.792 main 10 0 P_____________ WP222021 9.93862 123.792 DB 15 1010 -3 1010 200 60 24 265
2021276N07131 2021 89 WP MM LIONROCK 2021-10-04 06:00:00 NR 9.80000 122.600 main 0 0 O_____________ jtwc_wp WP222021 9.80000 122.600 DB 15 1010 -3 1010 200 60 19 263
2021276N07131 2021 89 WP MM LIONROCK 2021-10-04 09:00:00 NR 9.71689 121.880 main 55 55 P_____________ WP222021 9.71689 121.880 DB 12 1010 -3 1010 200 60 12 270
2021276N07131 2021 89 WP MM LIONROCK 2021-10-04 12:00:00 NR 9.80000 121.400 main 86 86 O_____________ jtwc_wp WP222021 9.80000 121.400 DB 10 1010 -3 1010 200 60 10 298
2021276N07131 2021 89 WP MM LIONROCK 2021-10-04 15:00:00 NR 10.1671 121.015 main 101 100 P_____________ WP222021 10.1671 121.015 DB 12 1011 -3 1011 200 60 12 319
2021276N07131 2021 89 WP MM LIONROCK 2021-10-04 18:00:00 NR 10.7000 120.600 main 100 32 O_____________ jtwc_wp WP222021 10.7000 120.600 DB 15 1012 -3 1012 200 60 16 315
2021276N07131 2021 89 WP MM LIONROCK 2021-10-04 21:00:00 NR 11.2804 119.893 main 32 15 P_____________ WP222021 11.2804 119.893 DB 15 1012 -3 1012 200 60 18 307
2021276N07131 2021 89 WP MM LIONROCK 2021-10-05 00:00:00 TS 11.7600 119.160 1004 tokyo main 64 64 OO____________ jtwc_wp WP222021 11.8000 119.200 DB 15 1012 -3 1012 200 60 11.6000 119.000 2 1004 0 0 0 14 303
2021276N07131 2021 89 WP MM LIONROCK 2021-10-05 03:00:00 TS 12.0588 118.689 main 124 124 PP____________ WP222021 12.0944 118.849 DB 17 1008 -3 1010 200 55 11.9877 118.368 2 1003 0 0 11 301
2021276N07131 2021 89 WP MM LIONROCK 2021-10-05 06:00:00 TS 12.3429 118.157 1002 tokyo main 179 179 OO____________ jtwc_wp WP222021 12.3000 118.500 DB 20 1004 -3 1008 200 50 12.4000 117.700 2 1002 0 0 0 14 297
2021276N07131 2021 89 WP MM LIONROCK 2021-10-05 09:00:00 TS 12.6850 117.426 main 274 274 PP____________ WP222021 12.5200 117.867 DB 20 1004 -3 1008 200 45 12.8500 116.985 2 1002 0 0 16 296
2021276N07131 2021 89 WP MM LIONROCK 2021-10-05 12:00:00 TS 13.0500 116.700 1002 tokyo main 362 356 OO____________ jtwc_wp WP222021 12.8000 117.100 DB 20 1004 -3 1008 200 40 13.3000 116.300 2 1002 0 0 0 16 300
2021276N07131 2021 89 WP MM LIONROCK 2021-10-05 15:00:00 TS 13.4824 116.003 main 450 450 PP____________ WP222021 13.2350 116.300 DB 20 1005 -3 1008 200 60 13.7298 115.705 2 1002 0 0 16 303
2021276N07131 2021 89 WP MM LIONROCK 2021-10-05 18:00:00 TS 13.9000 115.350 1002 tokyo main 512 512 OO____________ jtwc_wp WP222021 13.7000 115.500 DB 20 1006 -3 1008 200 80 14.1000 115.200 2 1002 0 0 0 14 301
2021276N07131 2021 89 WP MM LIONROCK 2021-10-05 21:00:00 TS 14.2224 114.751 main 563 542 PP____________ WP222021 14.0725 114.740 DB 20 1002 -3 1005 200 80 14.3724 114.762 2 1001 0 0 12 299
2021276N07131 2021 89 WP MM LIONROCK 2021-10-06 00:00:00 TS 14.5000 114.250 1000 tokyo main 543 503 OO____________ jtwc_wp WP222021 14.4000 114.100 DB 20 999 -3 1002 200 80 14.6000 114.400 2 1000 0 0 0 10 303
2021276N07131 2021 89 WP MM LIONROCK 2021-10-06 03:00:00 TS 14.7747 113.873 main 505 479 PP____________ WP222021 14.6996 113.662 DB 20 1001 -3 1004 200 80 14.8499 114.085 2 1000 0 0 9 309
2021276N07131 2021 89 WP MM LIONROCK 2021-10-06 06:00:00 TS 15.0500 113.550 1000 tokyo main 482 445 OO____________ jtwc_wp WP222021 15.0000 113.300 DB 20 1004 -3 1007 200 80 15.1000 113.800 2 1000 0 0 0 9 310
2021276N07131 2021 89 WP MM LIONROCK 2021-10-06 09:00:00 TS 15.3651 113.153 main 447 409 PP____________ WP222021 15.3727 112.813 DB 20 1001 -3 1004 215 90 15.3575 113.492 2 999 0 0 10 308
2021276N07131 2021 89 WP MM LIONROCK 2021-10-06 12:00:00 TS 15.6556 112.733 998 tokyo main 402 385 OOO___________ jtwc_wp WP222021 15.7000 112.400 DB 20 999 -3 1002 230 100 15.6000 113.200 2 998 0 0 0 15.7000 112.200 1 25 998 8 306
2021276N07131 2021 89 WP MM LIONROCK 2021-10-06 15:00:00 TS 15.8374 112.469 main 385 363 PPP___________ WP222021 15.8798 112.197 DB 20 999 -3 1002 230 100 15.7924 112.950 2 998 0 0 15.8425 112.053 1 25 998 6 307
2021276N07131 2021 89 WP MM LIONROCK 2021-10-06 18:00:00 TS 16.0000 112.264 998 tokyo main 363 332 OOO___________ jtwc_wp WP222021 16.0000 112.100 MD 20 999 -3 1002 230 100 16.0000 112.700 2 998 0 0 0 16.0000 111.900 1 25 998 6 313
2021276N07131 2021 89 WP MM LIONROCK 2021-10-06 21:00:00 TS 16.2142 112.045 main 325 301 PPP___________ WP222021 16.1500 112.007 MD 22 999 -3 1002 230 90 16.3076 112.385 2 998 0 0 16.1850 111.743 1 25 998 6 319
2021276N07131 2021 89 WP MM LIONROCK 2021-10-07 00:00:00 TS 16.4333 111.867 998 tokyo main 301 270 OOO___________ jtwc_wp WP222021 16.3000 111.900 TD 25 1000 -1 1002 230 80 16.6000 112.100 2 998 0 0 0 16.4000 111.600 1 25 998 5 322
2021276N07131 2021 89 WP MM LIONROCK 2021-10-07 03:00:00 TS 16.6291 111.712 main 270 246 PPP___________ WP222021 16.4500 111.715 TD 27 999 -1 1002 230 75 16.7724 111.935 2 997 0 0 16.6650 111.485 1 27 996 5 328
2021276N07131 2021 89 WP MM LIONROCK 2021-10-07 06:00:00 TS 16.8308 111.608 996 tokyo main 246 223 OOOO__________ jtwc_wp WP222021 16.6000 111.500 TD 30 998 -1 1002 230 70 16.9000 111.800 2 996 0 0 0 16.9000 111.400 1 29 995 17.2000 112.100 TD 30 994 4 327
2021276N07131 2021 89 WP MM LIONROCK 2021-10-07 09:00:00 TS 16.9714 111.482 main 223 207 PPPO__________ WP222021 16.7350 111.270 TD 27 997 -1 1001 215 67 17.0650 111.615 2 996 0 0 17.0000 111.353 1 29 995 17.2000 111.900 TD 30 994 4 322
2021276N07131 2021 89 WP MM LIONROCK 2021-10-07 12:00:00 TS 17.1133 111.373 996 tokyo main 207 176 OOOO__________ jtwc_wp WP222021 16.9000 111.100 TD 25 997 -1 1000 200 65 17.2000 111.400 2 996 0 0 0 17.1000 111.300 1 29 995 17.3000 111.800 TD 30 994 4 318
2021276N07131 2021 89 WP MM LIONROCK 2021-10-07 15:00:00 TS 17.2694 111.199 main 176 154 PPOO__________ WP222021 17.1275 111.070 TD 27 996 -1 1001 210 65 17.2501 111.127 2 995 0 0 17.3000 111.200 1 29 995 17.4000 111.400 TD 30 994 4 311
2021276N07131 2021 89 WP MM LIONROCK 2021-10-07 18:00:00 TS 17.4000 111.025 35 994 tokyo main 154 138 OOOO__________ jtwc_wp WP222021 17.4000 111.100 TD 30 996 -1 1002 220 65 17.3000 110.900 3 35 994 0 2 400 270 0 17.5000 111.100 2 34 992 17.4000 111.000 TD 30 994 4 323
2021276N07131 2021 89 WP MM LIONROCK 2021-10-07 21:00:00 TS 17.5725 110.962 main 138 113 PPOO__________ WP222021 17.7000 111.130 TD 30 996 -1 1002 210 57 17.3899 110.820 3 35 994 0 2 400 270 17.7000 111.000 2 34 992 17.5000 110.900 TS 35 992 4 347
2021276N07131 2021 89 WP MM LIONROCK 2021-10-08 00:00:00 TS 17.8000 110.925 35 994 tokyo main 113 79 OOOO__________ jtwc_wp WP222021 18.0000 111.100 TD 30 996 -1 1002 200 50 17.6000 110.800 3 35 994 0 2 400 270 0 17.9000 110.900 2 38 990 17.7000 110.900 TS 35 992 5 347
2021276N07131 2021 89 WP MM LIONROCK 2021-10-08 03:00:00 TS 18.1000 110.841 main 79 46 PPOO__________ WP222021 18.2651 110.915 TD 32 994 -1 1002 200 47 18.0350 110.750 3 35 994 0 2 400 270 18.2000 110.900 2 38 990 17.9000 110.800 TS 40 990 7 351
2021276N07131 2021 89 WP MM LIONROCK 2021-10-08 06:00:00 TS 18.5250 110.800 35 994 tokyo main 46 21 OOOO__________ jtwc_wp WP222021 18.5000 110.700 TS 35 993 0 85 175 185 1002 200 45 18.5000 110.700 3 35 994 0 2 400 270 0 18.6000 110.900 2 38 990 18.5000 110.900 TS 40 990 7 353
2021276N07131 2021 89 WP MM LIONROCK 2021-10-08 09:00:00 TS 18.7987 110.745 main 21 10 PPOO__________ WP222021 18.7074 110.607 TS 40 991 0 97 167 165 1002 200 42 18.7875 110.672 3 35 994 0 2 400 270 18.9000 110.800 2 38 990 18.8000 110.900 TS 40 990 5 346
2021276N07131 2021 89 WP MM LIONROCK 2021-10-08 12:00:00 TS 19.0000 110.675 35 994 tokyo main 10 0 OOOO__________ jtwc_wp WP222021 18.9000 110.500 TS 45 989 0 110 160 190 145 1002 200 40 19.0000 110.600 3 35 994 0 2 400 270 0 19.1000 110.700 2 38 990 19.0000 110.900 TS 40 990 5 324
2021276N07131 2021 89 WP MM LIONROCK 2021-10-08 15:00:00 TS 19.2288 110.418 main 0 0 PPOO__________ WP222021 19.1000 110.273 TS 40 991 0 140 150 150 130 1002 227 40 19.2151 110.400 3 35 994 0 2 400 270 19.3000 110.500 2 38 990 19.3000 110.500 TS 40 990 7 299
2021276N07131 2021 89 WP MM LIONROCK 2021-10-08 18:00:00 TS 19.3250 110.050 35 994 tokyo main 0 0 OOOO__________ jtwc_wp WP222021 19.3000 110.000 TS 35 994 0 170 140 110 115 1002 255 40 19.4000 110.200 3 35 994 0 2 400 270 0 19.3000 110.000 2 38 990 19.3000 110.000 TS 40 990 5 291
2021276N07131 2021 89 WP MM LIONROCK 2021-10-08 21:00:00 TS 19.4219 109.887 main 0 0 PPOO__________ WP222021 19.5301 109.713 TS 32 995 -1 1002 255 40 19.5575 110.135 3 35 994 0 2 362 270 19.3000 109.800 2 38 992 19.3000 109.900 TS 40 990 2 337
2021276N07131 2021 89 WP MM LIONROCK 2021-10-09 00:00:00 TS 19.5500 109.950 35 994 tokyo main 0 0 OOOO__________ jtwc_wp WP222021 19.7000 109.500 TD 30 997 -1 1002 255 40 19.7000 110.100 3 35 994 0 2 325 270 0 19.6000 110.000 2 38 992 19.2000 110.200 TS 40 990 3 29
2021276N07131 2021 89 WP MM LIONROCK 2021-10-09 03:00:00 TS 19.7125 110.054 main 0 0 PPOO__________ WP222021 19.6999 109.500 TD 32 995 -1 1002 247 50 19.8500 110.015 3 35 994 0 2 325 270 19.8000 110.200 2 38 992 19.5000 110.500 TS 40 990 3 0
2021276N07131 2021 89 WP MM LIONROCK 2021-10-09 06:00:00 TS 19.8750 109.975 35 994 tokyo main 0 0 OOOO__________ jtwc_wp WP222021 19.7000 109.500 TS 35 993 0 60 5 20 120 1002 240 60 20.0000 109.900 3 35 994 0 2 325 270 0 20.0000 110.200 2 38 992 19.8000 110.300 TS 40 990 3 315
2021276N07131 2021 89 WP MM LIONROCK 2021-10-09 09:00:00 TS 19.9587 109.796 main 11 11 PPOO__________ WP222021 19.8926 109.280 TS 35 993 0 65 12 30 130 1001 245 65 20.1423 109.802 3 35 994 0 2 325 270 19.9000 110.000 2 38 992 19.9000 110.100 TS 40 990 5 299
2021276N07131 2021 89 WP MM LIONROCK 2021-10-09 12:00:00 TS 20.1000 109.550 35 994 tokyo main 22 22 OOOO__________ jtwc_wp WP222021 20.1000 109.000 TS 35 993 0 70 20 40 140 1001 250 70 20.3000 109.600 3 35 994 0 2 325 270 0 20.0000 109.800 2 38 992 20.0000 109.800 TS 40 990 6 295
2021276N07131 2021 89 WP MM LIONROCK 2021-10-09 15:00:00 TS 20.2245 109.189 main 45 45 PPPO__________ WP222021 20.1573 108.822 TS 35 994 0 115 47 132 1001 250 70 20.5077 109.188 3 35 995 0 2 325 255 20.1330 109.448 2 38 992 20.1000 109.300 TS 40 990 8 292
2021276N07131 2021 89 WP MM LIONROCK 2021-10-09 18:00:00 TS 20.4000 108.775 35 996 tokyo main 85 85 OOOO__________ jtwc_wp WP222021 20.2000 108.600 TS 35 996 0 160 55 125 1001 250 70 20.7000 108.700 3 35 996 0 2 325 240 0 20.3000 109.000 2 38 992 20.4000 108.800 TS 35 994 8 293
2021276N07131 2021 89 WP MM LIONROCK 2021-10-09 21:00:00 TS 20.5524 108.378 main 102 70 PPPO__________ WP222021 20.3425 108.238 TS 35 996 0 110 112 1002 235 45 20.8372 108.307 3 35 997 0 2 297 195 20.5299 108.565 2 36 993 20.5000 108.400 TS 35 994 8 290
2021276N07131 2021 89 WP MM LIONROCK 2021-10-10 00:00:00 TS 20.6750 107.950 35 998 tokyo main 70 35 OOOO__________ jtwc_wp WP222021 20.5000 107.800 TS 35 996 0 60 30 100 1003 220 20 20.9000 107.900 3 35 998 0 2 270 150 0 20.7000 108.100 2 34 995 20.6000 108.000 TS 35 994 9 279
2021276N07131 2021 89 WP MM LIONROCK 2021-10-10 03:00:00 TS 20.6957 107.453 main 35 20 PPPO__________ WP222021 20.6151 107.335 TS 32 999 -1 1004 212 35 20.8727 107.385 3 999 0 2 20.6950 107.592 2 31 996 20.6000 107.500 TD 30 996 9 270
2021276N07131 2021 89 WP MM LIONROCK 2021-10-10 06:00:00 TS 20.6786 106.936 1000 tokyo main 10 0 OOOO__________ jtwc_wp WP222021 20.7000 106.900 TD 30 1002 -1 1006 205 50 20.8000 106.900 2 1000 0 0 0 20.6000 107.100 1 29 998 20.6000 106.800 TD 25 998 8 267
2021276N07131 2021 89 WP MM LIONROCK 2021-10-10 09:00:00 TS 20.6552 106.637 main 0 0 PPPO__________ WP222021 20.7575 106.568 TD 25 1002 -1 1006 197 37 20.7496 106.593 2 1001 0 0 20.5373 106.685 1 27 999 20.6000 106.700 TD 25 998 6 259
2021276N07131 2021 89 WP MM LIONROCK 2021-10-10 12:00:00 TS 20.5625 106.288 1002 tokyo main 0 0 OOOO__________ jtwc_wp WP222021 20.8000 106.300 DB 20 1002 -3 1006 190 25 20.7000 106.300 2 1002 0 0 0 20.4000 106.300 1 25 1000 20.4000 106.200 LW 20 1002 7 249
2021276N07131 2021 89 WP MM LIONROCK 2021-10-10 15:00:00 TS 20.3941 105.897 main 0 0 _PP___________ WP222021 DB -3 20.6505 105.890 2 1003 0 0 20.1377 105.905 1 25 1000 9 245
2021276N07131 2021 89 WP MM LIONROCK 2021-10-10 18:00:00 TS 20.2000 105.450 1004 tokyo main 0 _OO___________ -5 20.6000 105.400 2 1004 0 0 0 19.8000 105.500 1 25 1000 9 245

デジタル台風データ・検索

IBTrACS Databaseについて

本データベースは、米国NOAAが公開する1842年以降の世界の熱帯低気圧のベストトラックデータアーカイブInternational Best Track Archive for Climate Stewardship (IBTrACS)を、ウェブで閲覧しやすい形式に変換したものです。

最終更新日:2022-11-16